sensor_id;sensor_type;location;lat;lon;timestamp;P1;durP1;ratioP1;P2;durP2;ratioP2
40501;SDS011;29631;49.168;9.848;2023-08-01T00:00:50;2.75;;;2.55;;
40501;SDS011;29631;49.168;9.848;2023-08-01T00:03:16;2.53;;;2.40;;
40501;SDS011;29631;49.168;9.848;2023-08-01T00:05:41;2.80;;;2.60;;
40501;SDS011;29631;49.168;9.848;2023-08-01T00:08:11;3.00;;;2.80;;
40501;SDS011;29631;49.168;9.848;2023-08-01T00:10:37;2.90;;;2.70;;
40501;SDS011;29631;49.168;9.848;2023-08-01T00:13:03;3.33;;;2.80;;
40501;SDS011;29631;49.168;9.848;2023-08-01T00:15:29;3.05;;;2.85;;
40501;SDS011;29631;49.168;9.848;2023-08-01T00:17:55;2.83;;;2.63;;
40501;SDS011;29631;49.168;9.848;2023-08-01T00:20:21;2.72;;;2.53;;
40501;SDS011;29631;49.168;9.848;2023-08-01T00:22:47;2.70;;;2.50;;
40501;SDS011;29631;49.168;9.848;2023-08-01T00:25:13;2.50;;;2.40;;
40501;SDS011;29631;49.168;9.848;2023-08-01T00:27:39;3.35;;;2.67;;
40501;SDS011;29631;49.168;9.848;2023-08-01T00:30:05;4.07;;;2.95;;
40501;SDS011;29631;49.168;9.848;2023-08-01T00:32:33;2.70;;;2.47;;
40501;SDS011;29631;49.168;9.848;2023-08-01T00:34:59;4.35;;;2.80;;
40501;SDS011;29631;49.168;9.848;2023-08-01T00:37:25;3.03;;;2.72;;
40501;SDS011;29631;49.168;9.848;2023-08-01T00:39:50;3.65;;;2.50;;
40501;SDS011;29631;49.168;9.848;2023-08-01T00:42:16;3.97;;;2.90;;
40501;SDS011;29631;49.168;9.848;2023-08-01T00:44:42;3.97;;;2.95;;
40501;SDS011;29631;49.168;9.848;2023-08-01T00:47:08;5.07;;;2.78;;
40501;SDS011;29631;49.168;9.848;2023-08-01T00:49:34;4.57;;;3.00;;
40501;SDS011;29631;49.168;9.848;2023-08-01T00:52:00;2.97;;;2.78;;
40501;SDS011;29631;49.168;9.848;2023-08-01T00:54:26;4.10;;;3.10;;
40501;SDS011;29631;49.168;9.848;2023-08-01T00:56:52;2.97;;;2.78;;
40501;SDS011;29631;49.168;9.848;2023-08-01T00:59:18;2.97;;;2.78;;
40501;SDS011;29631;49.168;9.848;2023-08-01T01:01:44;3.35;;;3.05;;
40501;SDS011;29631;49.168;9.848;2023-08-01T01:04:09;2.95;;;2.75;;
40501;SDS011;29631;49.168;9.848;2023-08-01T01:06:44;2.65;;;2.45;;
40501;SDS011;29631;49.168;9.848;2023-08-01T01:09:16;3.67;;;3.22;;
40501;SDS011;29631;49.168;9.848;2023-08-01T01:11:43;3.10;;;2.90;;
40501;SDS011;29631;49.168;9.848;2023-08-01T01:14:10;2.95;;;2.72;;
40501;SDS011;29631;49.168;9.848;2023-08-01T01:16:36;3.13;;;2.90;;
40501;SDS011;29631;49.168;9.848;2023-08-01T01:19:06;3.13;;;2.70;;
40501;SDS011;29631;49.168;9.848;2023-08-01T01:21:34;3.28;;;2.97;;
40501;SDS011;29631;49.168;9.848;2023-08-01T01:24:02;2.88;;;2.63;;
40501;SDS011;29631;49.168;9.848;2023-08-01T01:26:32;3.00;;;2.80;;
40501;SDS011;29631;49.168;9.848;2023-08-01T01:28:59;3.40;;;3.10;;
40501;SDS011;29631;49.168;9.848;2023-08-01T01:31:28;2.72;;;2.55;;
40501;SDS011;29631;49.168;9.848;2023-08-01T01:33:55;4.07;;;2.88;;
40501;SDS011;29631;49.168;9.848;2023-08-01T01:36:20;3.63;;;3.33;;
40501;SDS011;29631;49.168;9.848;2023-08-01T01:38:46;3.22;;;2.97;;
40501;SDS011;29631;49.168;9.848;2023-08-01T01:41:12;3.30;;;3.00;;
40501;SDS011;29631;49.168;9.848;2023-08-01T01:43:38;3.20;;;3.00;;
40501;SDS011;29631;49.168;9.848;2023-08-01T01:46:04;3.35;;;3.00;;
40501;SDS011;29631;49.168;9.848;2023-08-01T01:48:29;2.90;;;2.70;;
40501;SDS011;29631;49.168;9.848;2023-08-01T01:50:55;4.47;;;3.03;;
40501;SDS011;29631;49.168;9.848;2023-08-01T01:53:21;3.33;;;3.13;;
40501;SDS011;29631;49.168;9.848;2023-08-01T01:55:46;2.75;;;2.55;;
40501;SDS011;29631;49.168;9.848;2023-08-01T01:58:12;3.40;;;3.10;;
40501;SDS011;29631;49.168;9.848;2023-08-01T02:00:38;2.63;;;2.42;;
40501;SDS011;29631;49.168;9.848;2023-08-01T02:03:04;3.38;;;3.08;;
40501;SDS011;29631;49.168;9.848;2023-08-01T02:05:32;4.88;;;3.13;;
40501;SDS011;29631;49.168;9.848;2023-08-01T02:07:58;4.40;;;3.05;;
40501;SDS011;29631;49.168;9.848;2023-08-01T02:10:23;6.07;;;3.00;;
40501;SDS011;29631;49.168;9.848;2023-08-01T02:12:49;3.15;;;2.95;;
40501;SDS011;29631;49.168;9.848;2023-08-01T02:15:15;3.67;;;3.38;;
40501;SDS011;29631;49.168;9.848;2023-08-01T02:17:41;3.15;;;2.90;;
40501;SDS011;29631;49.168;9.848;2023-08-01T02:20:07;3.20;;;2.95;;
40501;SDS011;29631;49.168;9.848;2023-08-01T02:22:33;2.95;;;2.75;;
40501;SDS011;29631;49.168;9.848;2023-08-01T02:24:58;3.42;;;3.13;;
40501;SDS011;29631;49.168;9.848;2023-08-01T02:27:24;3.33;;;3.03;;
40501;SDS011;29631;49.168;9.848;2023-08-01T02:29:50;3.60;;;3.30;;
40501;SDS011;29631;49.168;9.848;2023-08-01T02:32:16;4.28;;;3.35;;
40501;SDS011;29631;49.168;9.848;2023-08-01T02:34:42;3.55;;;3.25;;
40501;SDS011;29631;49.168;9.848;2023-08-01T02:37:08;3.53;;;3.30;;
40501;SDS011;29631;49.168;9.848;2023-08-01T02:39:34;2.92;;;2.72;;
40501;SDS011;29631;49.168;9.848;2023-08-01T02:42:00;3.28;;;3.08;;
40501;SDS011;29631;49.168;9.848;2023-08-01T02:44:26;3.10;;;2.80;;
40501;SDS011;29631;49.168;9.848;2023-08-01T02:46:52;3.53;;;3.20;;
40501;SDS011;29631;49.168;9.848;2023-08-01T02:49:18;3.42;;;3.15;;
40501;SDS011;29631;49.168;9.848;2023-08-01T02:51:43;3.40;;;3.20;;
40501;SDS011;29631;49.168;9.848;2023-08-01T02:54:09;3.00;;;2.75;;
40501;SDS011;29631;49.168;9.848;2023-08-01T02:56:35;3.08;;;2.88;;
40501;SDS011;29631;49.168;9.848;2023-08-01T02:59:05;3.65;;;3.35;;
40501;SDS011;29631;49.168;9.848;2023-08-01T03:01:33;4.13;;;3.50;;
40501;SDS011;29631;49.168;9.848;2023-08-01T03:04:03;3.47;;;3.28;;
40501;SDS011;29631;49.168;9.848;2023-08-01T03:06:30;3.15;;;2.95;;
40501;SDS011;29631;49.168;9.848;2023-08-01T03:08:57;3.28;;;3.05;;
40501;SDS011;29631;49.168;9.848;2023-08-01T03:11:22;3.50;;;3.20;;
40501;SDS011;29631;49.168;9.848;2023-08-01T03:13:48;3.30;;;3.10;;
40501;SDS011;29631;49.168;9.848;2023-08-01T03:16:15;4.47;;;2.97;;
40501;SDS011;29631;49.168;9.848;2023-08-01T03:18:41;2.80;;;2.60;;
40501;SDS011;29631;49.168;9.848;2023-08-01T03:21:07;4.65;;;3.25;;
40501;SDS011;29631;49.168;9.848;2023-08-01T03:23:32;3.22;;;2.88;;
40501;SDS011;29631;49.168;9.848;2023-08-01T03:25:58;3.15;;;2.95;;
40501;SDS011;29631;49.168;9.848;2023-08-01T03:28:25;3.35;;;3.10;;
40501;SDS011;29631;49.168;9.848;2023-08-01T03:30:51;4.65;;;3.15;;
40501;SDS011;29631;49.168;9.848;2023-08-01T03:33:19;3.13;;;2.88;;
40501;SDS011;29631;49.168;9.848;2023-08-01T03:35:45;3.35;;;3.15;;
40501;SDS011;29631;49.168;9.848;2023-08-01T03:38:11;3.30;;;3.10;;
40501;SDS011;29631;49.168;9.848;2023-08-01T03:40:37;3.53;;;3.28;;
40501;SDS011;29631;49.168;9.848;2023-08-01T03:43:03;3.33;;;3.03;;
40501;SDS011;29631;49.168;9.848;2023-08-01T03:45:30;3.50;;;3.10;;
40501;SDS011;29631;49.168;9.848;2023-08-01T03:47:55;3.42;;;3.22;;
40501;SDS011;29631;49.168;9.848;2023-08-01T03:50:21;3.88;;;3.50;;
40501;SDS011;29631;49.168;9.848;2023-08-01T03:52:47;3.38;;;2.83;;
40501;SDS011;29631;49.168;9.848;2023-08-01T03:55:13;3.22;;;2.92;;
40501;SDS011;29631;49.168;9.848;2023-08-01T03:57:38;3.72;;;3.15;;
40501;SDS011;29631;49.168;9.848;2023-08-01T04:00:05;3.05;;;2.83;;
40501;SDS011;29631;49.168;9.848;2023-08-01T04:02:38;3.53;;;3.28;;
40501;SDS011;29631;49.168;9.848;2023-08-01T04:05:08;3.42;;;3.22;;
40501;SDS011;29631;49.168;9.848;2023-08-01T04:07:37;4.10;;;3.03;;
40501;SDS011;29631;49.168;9.848;2023-08-01T04:10:03;3.30;;;3.00;;
40501;SDS011;29631;49.168;9.848;2023-08-01T04:12:31;3.22;;;3.03;;
40501;SDS011;29631;49.168;9.848;2023-08-01T04:14:58;3.70;;;3.40;;
40501;SDS011;29631;49.168;9.848;2023-08-01T04:17:24;3.40;;;3.20;;
40501;SDS011;29631;49.168;9.848;2023-08-01T04:19:50;3.47;;;3.28;;
40501;SDS011;29631;49.168;9.848;2023-08-01T04:22:16;3.65;;;3.35;;
40501;SDS011;29631;49.168;9.848;2023-08-01T04:24:41;3.40;;;3.10;;
40501;SDS011;29631;49.168;9.848;2023-08-01T04:27:07;3.55;;;3.25;;
40501;SDS011;29631;49.168;9.848;2023-08-01T04:29:33;6.43;;;3.58;;
40501;SDS011;29631;49.168;9.848;2023-08-01T04:31:59;5.00;;;3.70;;
40501;SDS011;29631;49.168;9.848;2023-08-01T04:34:25;3.92;;;3.47;;
40501;SDS011;29631;49.168;9.848;2023-08-01T04:36:51;3.72;;;3.35;;
40501;SDS011;29631;49.168;9.848;2023-08-01T04:39:16;3.65;;;3.35;;
40501;SDS011;29631;49.168;9.848;2023-08-01T04:41:42;3.58;;;3.28;;
40501;SDS011;29631;49.168;9.848;2023-08-01T04:44:08;3.50;;;3.30;;
40501;SDS011;29631;49.168;9.848;2023-08-01T04:46:34;3.55;;;3.28;;
40501;SDS011;29631;49.168;9.848;2023-08-01T04:48:59;3.30;;;3.10;;
40501;SDS011;29631;49.168;9.848;2023-08-01T04:51:25;3.35;;;3.15;;
40501;SDS011;29631;49.168;9.848;2023-08-01T04:53:51;3.33;;;3.13;;
40501;SDS011;29631;49.168;9.848;2023-08-01T04:56:16;3.47;;;3.20;;
40501;SDS011;29631;49.168;9.848;2023-08-01T04:58:42;3.67;;;3.40;;
40501;SDS011;29631;49.168;9.848;2023-08-01T05:01:08;3.35;;;3.15;;
40501;SDS011;29631;49.168;9.848;2023-08-01T05:03:34;3.55;;;3.25;;
40501;SDS011;29631;49.168;9.848;2023-08-01T05:05:59;4.15;;;2.83;;
40501;SDS011;29631;49.168;9.848;2023-08-01T05:08:25;3.38;;;3.17;;
40501;SDS011;29631;49.168;9.848;2023-08-01T05:10:52;4.40;;;3.30;;
40501;SDS011;29631;49.168;9.848;2023-08-01T05:13:18;3.60;;;3.30;;
40501;SDS011;29631;49.168;9.848;2023-08-01T05:15:44;3.38;;;3.08;;
40501;SDS011;29631;49.168;9.848;2023-08-01T05:18:14;3.65;;;3.35;;
40501;SDS011;29631;49.168;9.848;2023-08-01T05:20:41;3.78;;;3.47;;
40501;SDS011;29631;49.168;9.848;2023-08-01T05:23:07;3.15;;;2.95;;
40501;SDS011;29631;49.168;9.848;2023-08-01T05:25:34;3.40;;;3.17;;
40501;SDS011;29631;49.168;9.848;2023-08-01T05:27:59;3.38;;;3.17;;
40501;SDS011;29631;49.168;9.848;2023-08-01T05:30:25;4.13;;;3.25;;
40501;SDS011;29631;49.168;9.848;2023-08-01T05:32:51;3.42;;;3.22;;
40501;SDS011;29631;49.168;9.848;2023-08-01T05:35:18;3.63;;;3.33;;
40501;SDS011;29631;49.168;9.848;2023-08-01T05:37:44;3.40;;;3.10;;
40501;SDS011;29631;49.168;9.848;2023-08-01T05:40:10;2.53;;;2.33;;
40501;SDS011;29631;49.168;9.848;2023-08-01T05:42:36;2.95;;;2.75;;
40501;SDS011;29631;49.168;9.848;2023-08-01T05:45:02;3.83;;;2.90;;
40501;SDS011;29631;49.168;9.848;2023-08-01T05:47:29;3.20;;;3.00;;
40501;SDS011;29631;49.168;9.848;2023-08-01T05:49:55;3.58;;;3.28;;
40501;SDS011;29631;49.168;9.848;2023-08-01T05:52:21;3.20;;;2.75;;
40501;SDS011;29631;49.168;9.848;2023-08-01T05:54:47;3.03;;;2.72;;
40501;SDS011;29631;49.168;9.848;2023-08-01T05:57:13;5.57;;;3.25;;
40501;SDS011;29631;49.168;9.848;2023-08-01T05:59:39;2.97;;;2.72;;
40501;SDS011;29631;49.168;9.848;2023-08-01T06:02:05;3.30;;;3.10;;
40501;SDS011;29631;49.168;9.848;2023-08-01T06:04:31;3.60;;;3.08;;
40501;SDS011;29631;49.168;9.848;2023-08-01T06:06:57;3.15;;;2.95;;
40501;SDS011;29631;49.168;9.848;2023-08-01T06:09:23;2.90;;;2.70;;
40501;SDS011;29631;49.168;9.848;2023-08-01T06:11:50;3.33;;;3.03;;
40501;SDS011;29631;49.168;9.848;2023-08-01T06:14:16;2.85;;;2.65;;
40501;SDS011;29631;49.168;9.848;2023-08-01T06:16:42;3.55;;;3.25;;
40501;SDS011;29631;49.168;9.848;2023-08-01T06:19:08;3.20;;;2.90;;
40501;SDS011;29631;49.168;9.848;2023-08-01T06:21:34;3.00;;;2.80;;
40501;SDS011;29631;49.168;9.848;2023-08-01T06:24:00;2.75;;;2.60;;
40501;SDS011;29631;49.168;9.848;2023-08-01T06:26:25;2.85;;;2.65;;
40501;SDS011;29631;49.168;9.848;2023-08-01T06:28:52;2.67;;;2.47;;
40501;SDS011;29631;49.168;9.848;2023-08-01T06:31:18;2.22;;;2.13;;
40501;SDS011;29631;49.168;9.848;2023-08-01T06:33:45;2.53;;;2.38;;
40501;SDS011;29631;49.168;9.848;2023-08-01T06:36:11;3.25;;;2.80;;
40501;SDS011;29631;49.168;9.848;2023-08-01T06:38:38;2.55;;;2.45;;
40501;SDS011;29631;49.168;9.848;2023-08-01T06:41:04;2.83;;;2.60;;
40501;SDS011;29631;49.168;9.848;2023-08-01T06:43:29;2.42;;;2.33;;
40501;SDS011;29631;49.168;9.848;2023-08-01T06:45:55;2.70;;;2.53;;
40501;SDS011;29631;49.168;9.848;2023-08-01T06:48:21;2.70;;;2.50;;
40501;SDS011;29631;49.168;9.848;2023-08-01T06:50:46;2.90;;;2.60;;
40501;SDS011;29631;49.168;9.848;2023-08-01T06:53:12;2.50;;;2.30;;
40501;SDS011;29631;49.168;9.848;2023-08-01T06:55:38;3.22;;;2.70;;
40501;SDS011;29631;49.168;9.848;2023-08-01T06:58:04;2.55;;;2.45;;
40501;SDS011;29631;49.168;9.848;2023-08-01T07:00:31;2.97;;;2.78;;
40501;SDS011;29631;49.168;9.848;2023-08-01T07:02:56;2.80;;;2.60;;
40501;SDS011;29631;49.168;9.848;2023-08-01T07:05:22;2.70;;;2.50;;
40501;SDS011;29631;49.168;9.848;2023-08-01T07:07:48;2.92;;;2.70;;
40501;SDS011;29631;49.168;9.848;2023-08-01T07:10:14;2.90;;;2.70;;
40501;SDS011;29631;49.168;9.848;2023-08-01T07:12:40;3.30;;;3.00;;
40501;SDS011;29631;49.168;9.848;2023-08-01T07:15:06;3.00;;;2.80;;
40501;SDS011;29631;49.168;9.848;2023-08-01T07:17:32;2.53;;;2.33;;
40501;SDS011;29631;49.168;9.848;2023-08-01T07:19:58;3.22;;;2.60;;
40501;SDS011;29631;49.168;9.848;2023-08-01T07:22:24;4.80;;;2.75;;
40501;SDS011;29631;49.168;9.848;2023-08-01T07:24:53;2.92;;;2.72;;
40501;SDS011;29631;49.168;9.848;2023-08-01T07:27:19;3.10;;;2.80;;
40501;SDS011;29631;49.168;9.848;2023-08-01T07:29:46;3.30;;;3.00;;
40501;SDS011;29631;49.168;9.848;2023-08-01T07:32:12;3.70;;;3.00;;
40501;SDS011;29631;49.168;9.848;2023-08-01T07:34:38;2.95;;;2.67;;
40501;SDS011;29631;49.168;9.848;2023-08-01T07:37:03;2.78;;;2.58;;
40501;SDS011;29631;49.168;9.848;2023-08-01T07:39:29;3.00;;;2.80;;
40501;SDS011;29631;49.168;9.848;2023-08-01T07:41:55;3.42;;;3.13;;
40501;SDS011;29631;49.168;9.848;2023-08-01T07:44:21;3.50;;;3.20;;
40501;SDS011;29631;49.168;9.848;2023-08-01T07:46:47;3.08;;;2.88;;
40501;SDS011;29631;49.168;9.848;2023-08-01T07:49:12;3.38;;;3.08;;
40501;SDS011;29631;49.168;9.848;2023-08-01T07:51:38;3.70;;;3.38;;
40501;SDS011;29631;49.168;9.848;2023-08-01T07:54:04;4.22;;;3.30;;
40501;SDS011;29631;49.168;9.848;2023-08-01T07:56:30;3.70;;;3.40;;
40501;SDS011;29631;49.168;9.848;2023-08-01T07:58:55;3.30;;;3.10;;
40501;SDS011;29631;49.168;9.848;2023-08-01T08:01:21;3.63;;;3.38;;
40501;SDS011;29631;49.168;9.848;2023-08-01T08:03:47;3.65;;;3.35;;
40501;SDS011;29631;49.168;9.848;2023-08-01T08:06:13;4.18;;;3.55;;
40501;SDS011;29631;49.168;9.848;2023-08-01T08:08:39;3.67;;;3.38;;
40501;SDS011;29631;49.168;9.848;2023-08-01T08:11:05;3.75;;;3.38;;
40501;SDS011;29631;49.168;9.848;2023-08-01T08:13:30;3.90;;;3.67;;
40501;SDS011;29631;49.168;9.848;2023-08-01T08:15:56;4.43;;;4.03;;
40501;SDS011;29631;49.168;9.848;2023-08-01T08:18:23;4.28;;;3.88;;
40501;SDS011;29631;49.168;9.848;2023-08-01T08:20:50;5.20;;;3.60;;
40501;SDS011;29631;49.168;9.848;2023-08-01T08:23:16;4.03;;;3.72;;
40501;SDS011;29631;49.168;9.848;2023-08-01T08:25:42;4.07;;;3.78;;
40501;SDS011;29631;49.168;9.848;2023-08-01T08:28:16;4.30;;;4.00;;
40501;SDS011;29631;49.168;9.848;2023-08-01T08:30:57;3.78;;;3.47;;
40501;SDS011;29631;49.168;9.848;2023-08-01T08:33:23;3.78;;;3.47;;
40501;SDS011;29631;49.168;9.848;2023-08-01T08:35:49;4.05;;;3.75;;
40501;SDS011;29631;49.168;9.848;2023-08-01T08:38:16;4.38;;;3.95;;
40501;SDS011;29631;49.168;9.848;2023-08-01T08:40:57;4.63;;;4.15;;
40501;SDS011;29631;49.168;9.848;2023-08-01T08:43:34;4.47;;;4.00;;
40501;SDS011;29631;49.168;9.848;2023-08-01T08:46:02;3.90;;;3.55;;
40501;SDS011;29631;49.168;9.848;2023-08-01T08:48:29;4.07;;;3.70;;
40501;SDS011;29631;49.168;9.848;2023-08-01T08:50:57;4.20;;;3.90;;
40501;SDS011;29631;49.168;9.848;2023-08-01T08:53:24;3.80;;;3.50;;
40501;SDS011;29631;49.168;9.848;2023-08-01T08:55:50;4.10;;;3.70;;
40501;SDS011;29631;49.168;9.848;2023-08-01T08:58:16;4.50;;;3.50;;
40501;SDS011;29631;49.168;9.848;2023-08-01T09:00:43;3.90;;;3.60;;
40501;SDS011;29631;49.168;9.848;2023-08-01T09:03:09;3.17;;;2.97;;
40501;SDS011;29631;49.168;9.848;2023-08-01T09:05:48;3.65;;;3.30;;
40501;SDS011;29631;49.168;9.848;2023-08-01T09:08:29;3.47;;;3.28;;
40501;SDS011;29631;49.168;9.848;2023-08-01T09:10:57;3.53;;;3.30;;
40501;SDS011;29631;49.168;9.848;2023-08-01T09:13:23;3.03;;;2.83;;
40501;SDS011;29631;49.168;9.848;2023-08-01T09:15:48;3.28;;;2.97;;
40501;SDS011;29631;49.168;9.848;2023-08-01T09:18:15;2.90;;;2.70;;
40501;SDS011;29631;49.168;9.848;2023-08-01T09:20:44;2.50;;;2.30;;
40501;SDS011;29631;49.168;9.848;2023-08-01T09:23:12;2.70;;;2.50;;
40501;SDS011;29631;49.168;9.848;2023-08-01T09:25:39;2.75;;;2.55;;
40501;SDS011;29631;49.168;9.848;2023-08-01T09:28:15;2.70;;;2.50;;
40501;SDS011;29631;49.168;9.848;2023-08-01T09:30:47;2.55;;;2.45;;
40501;SDS011;29631;49.168;9.848;2023-08-01T09:33:20;2.47;;;2.38;;
40501;SDS011;29631;49.168;9.848;2023-08-01T09:35:48;2.22;;;2.13;;
40501;SDS011;29631;49.168;9.848;2023-08-01T09:38:15;2.47;;;2.38;;
40501;SDS011;29631;49.168;9.848;2023-08-01T09:40:42;2.33;;;2.22;;
40501;SDS011;29631;49.168;9.848;2023-08-01T09:43:10;2.00;;;1.90;;
40501;SDS011;29631;49.168;9.848;2023-08-01T09:45:37;2.75;;;2.30;;
40501;SDS011;29631;49.168;9.848;2023-08-01T09:48:20;1.90;;;1.80;;
40501;SDS011;29631;49.168;9.848;2023-08-01T09:50:51;2.42;;;1.80;;
40501;SDS011;29631;49.168;9.848;2023-08-01T09:53:18;1.73;;;1.70;;
40501;SDS011;29631;49.168;9.848;2023-08-01T09:55:43;2.25;;;1.90;;
40501;SDS011;29631;49.168;9.848;2023-08-01T09:58:15;1.58;;;1.50;;
40501;SDS011;29631;49.168;9.848;2023-08-01T10:00:46;1.30;;;1.30;;
40501;SDS011;29631;49.168;9.848;2023-08-01T10:03:12;1.30;;;1.30;;
40501;SDS011;29631;49.168;9.848;2023-08-01T10:05:38;1.42;;;1.40;;
40501;SDS011;29631;49.168;9.848;2023-08-01T10:08:06;2.05;;;1.20;;
40501;SDS011;29631;49.168;9.848;2023-08-01T10:10:32;1.33;;;1.25;;
40501;SDS011;29631;49.168;9.848;2023-08-01T10:12:59;1.33;;;1.33;;
40501;SDS011;29631;49.168;9.848;2023-08-01T10:15:26;1.63;;;1.05;;
40501;SDS011;29631;49.168;9.848;2023-08-01T10:17:54;1.00;;;1.00;;
40501;SDS011;29631;49.168;9.848;2023-08-01T10:20:20;0.95;;;0.95;;
40501;SDS011;29631;49.168;9.848;2023-08-01T10:22:47;0.75;;;0.75;;
40501;SDS011;29631;49.168;9.848;2023-08-01T10:25:17;0.80;;;0.80;;
40501;SDS011;29631;49.168;9.848;2023-08-01T10:27:44;0.77;;;0.77;;
40501;SDS011;29631;49.168;9.848;2023-08-01T10:30:10;0.93;;;0.88;;
40501;SDS011;29631;49.168;9.848;2023-08-01T10:32:37;1.08;;;0.80;;
40501;SDS011;29631;49.168;9.848;2023-08-01T10:35:05;1.15;;;0.80;;
40501;SDS011;29631;49.168;9.848;2023-08-01T10:37:41;1.10;;;1.10;;
40501;SDS011;29631;49.168;9.848;2023-08-01T10:40:12;0.80;;;0.80;;
40501;SDS011;29631;49.168;9.848;2023-08-01T10:42:38;0.90;;;0.90;;
40501;SDS011;29631;49.168;9.848;2023-08-01T10:45:22;1.67;;;1.58;;
40501;SDS011;29631;49.168;9.848;2023-08-01T10:47:49;1.10;;;1.10;;
40501;SDS011;29631;49.168;9.848;2023-08-01T10:50:16;0.95;;;0.95;;
40501;SDS011;29631;49.168;9.848;2023-08-01T10:52:43;0.82;;;0.82;;
40501;SDS011;29631;49.168;9.848;2023-08-01T10:55:09;1.02;;;0.73;;
40501;SDS011;29631;49.168;9.848;2023-08-01T10:57:37;1.00;;;1.00;;
40501;SDS011;29631;49.168;9.848;2023-08-01T11:00:15;0.93;;;0.93;;
40501;SDS011;29631;49.168;9.848;2023-08-01T11:02:48;1.00;;;1.00;;
40501;SDS011;29631;49.168;9.848;2023-08-01T11:05:16;1.27;;;0.85;;
40501;SDS011;29631;49.168;9.848;2023-08-01T11:07:52;0.80;;;0.80;;
40501;SDS011;29631;49.168;9.848;2023-08-01T11:10:21;0.80;;;0.80;;
40501;SDS011;29631;49.168;9.848;2023-08-01T11:12:47;0.88;;;0.88;;
40501;SDS011;29631;49.168;9.848;2023-08-01T11:15:13;0.80;;;0.80;;
40501;SDS011;29631;49.168;9.848;2023-08-01T11:17:40;1.40;;;1.40;;
40501;SDS011;29631;49.168;9.848;2023-08-01T11:20:12;0.80;;;0.80;;
40501;SDS011;29631;49.168;9.848;2023-08-01T11:22:38;0.80;;;0.80;;
40501;SDS011;29631;49.168;9.848;2023-08-01T11:25:34;0.63;;;0.63;;
40501;SDS011;29631;49.168;9.848;2023-08-01T11:28:11;0.90;;;0.90;;
40501;SDS011;29631;49.168;9.848;2023-08-01T11:30:40;0.90;;;0.90;;
40501;SDS011;29631;49.168;9.848;2023-08-01T11:33:13;1.10;;;0.90;;
40501;SDS011;29631;49.168;9.848;2023-08-01T11:35:45;1.38;;;1.27;;
40501;SDS011;29631;49.168;9.848;2023-08-01T11:38:11;2.13;;;1.02;;
40501;SDS011;29631;49.168;9.848;2023-08-01T11:40:37;1.13;;;1.13;;
40501;SDS011;29631;49.168;9.848;2023-08-01T11:43:04;0.93;;;0.93;;
40501;SDS011;29631;49.168;9.848;2023-08-01T11:45:30;0.80;;;0.80;;
40501;SDS011;29631;49.168;9.848;2023-08-01T11:47:56;0.93;;;0.93;;
40501;SDS011;29631;49.168;9.848;2023-08-01T11:50:22;0.85;;;0.85;;
40501;SDS011;29631;49.168;9.848;2023-08-01T11:52:50;1.58;;;0.90;;
40501;SDS011;29631;49.168;9.848;2023-08-01T11:55:20;0.90;;;0.90;;
40501;SDS011;29631;49.168;9.848;2023-08-01T11:57:51;0.85;;;0.85;;
40501;SDS011;29631;49.168;9.848;2023-08-01T12:00:22;1.00;;;0.95;;
40501;SDS011;29631;49.168;9.848;2023-08-01T12:02:50;0.90;;;0.90;;
40501;SDS011;29631;49.168;9.848;2023-08-01T12:05:23;1.00;;;1.00;;
40501;SDS011;29631;49.168;9.848;2023-08-01T12:07:49;1.10;;;1.10;;
40501;SDS011;29631;49.168;9.848;2023-08-01T12:10:15;2.47;;;1.30;;
40501;SDS011;29631;49.168;9.848;2023-08-01T12:12:45;1.15;;;1.02;;
40501;SDS011;29631;49.168;9.848;2023-08-01T12:15:12;1.00;;;1.00;;
40501;SDS011;29631;49.168;9.848;2023-08-01T12:17:39;2.60;;;0.80;;
40501;SDS011;29631;49.168;9.848;2023-08-01T12:20:05;1.20;;;1.10;;
40501;SDS011;29631;49.168;9.848;2023-08-01T12:22:32;1.20;;;1.20;;
40501;SDS011;29631;49.168;9.848;2023-08-01T12:24:58;1.00;;;1.00;;
40501;SDS011;29631;49.168;9.848;2023-08-01T12:27:23;1.10;;;1.10;;
40501;SDS011;29631;49.168;9.848;2023-08-01T12:29:49;0.98;;;0.98;;
40501;SDS011;29631;49.168;9.848;2023-08-01T12:32:15;1.13;;;1.13;;
40501;SDS011;29631;49.168;9.848;2023-08-01T12:34:41;1.10;;;1.10;;
40501;SDS011;29631;49.168;9.848;2023-08-01T12:37:06;1.20;;;1.20;;
40501;SDS011;29631;49.168;9.848;2023-08-01T12:39:32;1.65;;;0.90;;
40501;SDS011;29631;49.168;9.848;2023-08-01T12:41:58;0.90;;;0.90;;
40501;SDS011;29631;49.168;9.848;2023-08-01T12:44:23;1.10;;;1.10;;
40501;SDS011;29631;49.168;9.848;2023-08-01T12:46:49;1.20;;;1.10;;
40501;SDS011;29631;49.168;9.848;2023-08-01T12:49:15;1.08;;;1.08;;
40501;SDS011;29631;49.168;9.848;2023-08-01T12:51:42;1.27;;;1.20;;
40501;SDS011;29631;49.168;9.848;2023-08-01T12:54:08;1.10;;;1.10;;
40501;SDS011;29631;49.168;9.848;2023-08-01T12:56:34;0.98;;;0.98;;
40501;SDS011;29631;49.168;9.848;2023-08-01T12:58:59;1.15;;;1.15;;
40501;SDS011;29631;49.168;9.848;2023-08-01T13:01:25;2.42;;;1.00;;
40501;SDS011;29631;49.168;9.848;2023-08-01T13:03:51;0.80;;;0.80;;
40501;SDS011;29631;49.168;9.848;2023-08-01T13:06:16;4.88;;;1.40;;
40501;SDS011;29631;49.168;9.848;2023-08-01T13:08:42;1.13;;;1.10;;
40501;SDS011;29631;49.168;9.848;2023-08-01T13:11:11;1.10;;;1.10;;
40501;SDS011;29631;49.168;9.848;2023-08-01T13:13:42;1.10;;;1.10;;
40501;SDS011;29631;49.168;9.848;2023-08-01T13:16:08;0.90;;;0.90;;
40501;SDS011;29631;49.168;9.848;2023-08-01T13:18:34;1.20;;;1.10;;
40501;SDS011;29631;49.168;9.848;2023-08-01T13:21:00;1.20;;;1.20;;
40501;SDS011;29631;49.168;9.848;2023-08-01T13:23:26;1.20;;;1.20;;
40501;SDS011;29631;49.168;9.848;2023-08-01T13:25:52;1.20;;;1.10;;
40501;SDS011;29631;49.168;9.848;2023-08-01T13:28:18;1.73;;;1.13;;
40501;SDS011;29631;49.168;9.848;2023-08-01T13:30:43;1.02;;;1.02;;
40501;SDS011;29631;49.168;9.848;2023-08-01T13:33:09;1.15;;;1.10;;
40501;SDS011;29631;49.168;9.848;2023-08-01T13:35:35;1.52;;;1.20;;
40501;SDS011;29631;49.168;9.848;2023-08-01T13:38:01;1.20;;;1.02;;
40501;SDS011;29631;49.168;9.848;2023-08-01T13:40:28;1.15;;;1.15;;
40501;SDS011;29631;49.168;9.848;2023-08-01T13:42:53;3.03;;;1.10;;
40501;SDS011;29631;49.168;9.848;2023-08-01T13:45:19;1.35;;;1.35;;
40501;SDS011;29631;49.168;9.848;2023-08-01T13:47:45;1.20;;;1.20;;
40501;SDS011;29631;49.168;9.848;2023-08-01T13:50:10;1.52;;;1.23;;
40501;SDS011;29631;49.168;9.848;2023-08-01T13:52:37;1.10;;;1.02;;
40501;SDS011;29631;49.168;9.848;2023-08-01T13:55:03;1.42;;;1.33;;
40501;SDS011;29631;49.168;9.848;2023-08-01T13:57:29;1.30;;;1.30;;
40501;SDS011;29631;49.168;9.848;2023-08-01T13:59:55;1.10;;;1.10;;
40501;SDS011;29631;49.168;9.848;2023-08-01T14:02:21;1.13;;;1.13;;
40501;SDS011;29631;49.168;9.848;2023-08-01T14:04:50;1.13;;;1.13;;
40501;SDS011;29631;49.168;9.848;2023-08-01T14:07:17;1.50;;;1.10;;
40501;SDS011;29631;49.168;9.848;2023-08-01T14:09:43;1.50;;;1.40;;
40501;SDS011;29631;49.168;9.848;2023-08-01T14:12:09;1.30;;;1.30;;
40501;SDS011;29631;49.168;9.848;2023-08-01T14:14:34;1.25;;;1.25;;
40501;SDS011;29631;49.168;9.848;2023-08-01T14:17:00;1.25;;;1.25;;
40501;SDS011;29631;49.168;9.848;2023-08-01T14:19:26;1.05;;;1.05;;
40501;SDS011;29631;49.168;9.848;2023-08-01T14:21:54;1.20;;;1.10;;
40501;SDS011;29631;49.168;9.848;2023-08-01T14:24:23;1.10;;;1.10;;
40501;SDS011;29631;49.168;9.848;2023-08-01T14:26:49;1.98;;;1.33;;
40501;SDS011;29631;49.168;9.848;2023-08-01T14:29:16;1.10;;;1.10;;
40501;SDS011;29631;49.168;9.848;2023-08-01T14:31:47;1.02;;;1.02;;
40501;SDS011;29631;49.168;9.848;2023-08-01T14:34:14;1.13;;;1.13;;
40501;SDS011;29631;49.168;9.848;2023-08-01T14:36:40;1.50;;;1.40;;
40501;SDS011;29631;49.168;9.848;2023-08-01T14:39:06;2.55;;;1.10;;
40501;SDS011;29631;49.168;9.848;2023-08-01T14:41:32;1.10;;;1.10;;
40501;SDS011;29631;49.168;9.848;2023-08-01T14:43:58;2.35;;;1.35;;
40501;SDS011;29631;49.168;9.848;2023-08-01T14:46:24;3.00;;;1.00;;